sensor_id;sensor_type;location;lat;lon;timestamp;temperature;humidity
24035;DHT22;12242;50.952;4.678;2024-01-25T00:00:53;9.60;99.90
24035;DHT22;12242;50.952;4.678;2024-01-25T00:03:20;9.60;99.90
24035;DHT22;12242;50.952;4.678;2024-01-25T00:05:48;9.60;99.90
24035;DHT22;12242;50.952;4.678;2024-01-25T00:08:16;9.70;99.90
24035;DHT22;12242;50.952;4.678;2024-01-25T00:10:44;9.90;99.90
24035;DHT22;12242;50.952;4.678;2024-01-25T00:13:12;9.70;99.90
24035;DHT22;12242;50.952;4.678;2024-01-25T00:15:41;9.70;99.90
24035;DHT22;12242;50.952;4.678;2024-01-25T00:18:11;9.60;99.90
24035;DHT22;12242;50.952;4.678;2024-01-25T00:20:39;9.40;99.90
24035;DHT22;12242;50.952;4.678;2024-01-25T00:23:07;9.10;99.90
24035;DHT22;12242;50.952;4.678;2024-01-25T00:25:35;9.00;99.90
24035;DHT22;12242;50.952;4.678;2024-01-25T00:28:03;8.90;99.90
24035;DHT22;12242;50.952;4.678;2024-01-25T00:30:31;8.80;99.90
24035;DHT22;12242;50.952;4.678;2024-01-25T00:32:59;8.60;99.90
24035;DHT22;12242;50.952;4.678;2024-01-25T00:35:29;8.70;99.90
24035;DHT22;12242;50.952;4.678;2024-01-25T00:38:00;8.70;99.90
24035;DHT22;12242;50.952;4.678;2024-01-25T00:40:28;8.60;99.90
24035;DHT22;12242;50.952;4.678;2024-01-25T00:43:00;8.60;99.90
24035;DHT22;12242;50.952;4.678;2024-01-25T00:45:29;9.00;99.90
24035;DHT22;12242;50.952;4.678;2024-01-25T00:47:57;9.00;99.90
24035;DHT22;12242;50.952;4.678;2024-01-25T00:50:25;8.80;99.90
24035;DHT22;12242;50.952;4.678;2024-01-25T00:52:54;8.70;99.90
24035;DHT22;12242;50.952;4.678;2024-01-25T00:55:22;8.60;99.90
24035;DHT22;12242;50.952;4.678;2024-01-25T00:57:50;8.60;99.90
24035;DHT22;12242;50.952;4.678;2024-01-25T01:00:20;8.50;99.90
24035;DHT22;12242;50.952;4.678;2024-01-25T01:02:49;8.30;99.90
24035;DHT22;12242;50.952;4.678;2024-01-25T01:05:17;8.40;99.90
24035;DHT22;12242;50.952;4.678;2024-01-25T01:07:48;8.30;99.90
24035;DHT22;12242;50.952;4.678;2024-01-25T01:10:17;8.30;99.90
24035;DHT22;12242;50.952;4.678;2024-01-25T01:12:45;8.10;99.90
24035;DHT22;12242;50.952;4.678;2024-01-25T01:15:13;8.10;99.90
24035;DHT22;12242;50.952;4.678;2024-01-25T01:17:41;8.10;99.90
24035;DHT22;12242;50.952;4.678;2024-01-25T01:20:10;8.00;99.90
24035;DHT22;12242;50.952;4.678;2024-01-25T01:22:37;8.00;99.90
24035;DHT22;12242;50.952;4.678;2024-01-25T01:25:05;7.90;99.90
24035;DHT22;12242;50.952;4.678;2024-01-25T01:27:33;7.80;99.90
24035;DHT22;12242;50.952;4.678;2024-01-25T01:30:03;7.70;99.90
24035;DHT22;12242;50.952;4.678;2024-01-25T01:32:31;7.70;99.90
24035;DHT22;12242;50.952;4.678;2024-01-25T01:34:59;7.60;99.90
24035;DHT22;12242;50.952;4.678;2024-01-25T01:37:27;7.60;99.90
24035;DHT22;12242;50.952;4.678;2024-01-25T01:39:57;7.50;99.90
24035;DHT22;12242;50.952;4.678;2024-01-25T01:42:27;7.50;99.90
24035;DHT22;12242;50.952;4.678;2024-01-25T01:44:55;7.50;99.90
24035;DHT22;12242;50.952;4.678;2024-01-25T01:47:23;7.50;99.90
24035;DHT22;12242;50.952;4.678;2024-01-25T01:49:51;7.50;99.90
24035;DHT22;12242;50.952;4.678;2024-01-25T01:52:19;7.50;99.90
24035;DHT22;12242;50.952;4.678;2024-01-25T01:54:48;7.70;99.90
24035;DHT22;12242;50.952;4.678;2024-01-25T01:57:17;7.70;99.90
24035;DHT22;12242;50.952;4.678;2024-01-25T01:59:45;7.60;99.90
24035;DHT22;12242;50.952;4.678;2024-01-25T02:02:13;7.50;99.90
24035;DHT22;12242;50.952;4.678;2024-01-25T02:04:43;7.60;99.90
24035;DHT22;12242;50.952;4.678;2024-01-25T02:07:15;7.60;99.90
24035;DHT22;12242;50.952;4.678;2024-01-25T02:09:43;7.60;99.90
24035;DHT22;12242;50.952;4.678;2024-01-25T02:12:14;7.60;99.90
24035;DHT22;12242;50.952;4.678;2024-01-25T02:14:43;7.60;99.90
24035;DHT22;12242;50.952;4.678;2024-01-25T02:17:11;7.60;99.90
24035;DHT22;12242;50.952;4.678;2024-01-25T02:19:39;7.60;99.90
24035;DHT22;12242;50.952;4.678;2024-01-25T02:22:07;7.60;99.90
24035;DHT22;12242;50.952;4.678;2024-01-25T02:24:34;7.50;99.90
24035;DHT22;12242;50.952;4.678;2024-01-25T02:27:03;7.40;99.90
24035;DHT22;12242;50.952;4.678;2024-01-25T02:29:32;7.40;99.90
24035;DHT22;12242;50.952;4.678;2024-01-25T02:32:00;7.30;99.90
24035;DHT22;12242;50.952;4.678;2024-01-25T02:34:28;7.30;99.90
24035;DHT22;12242;50.952;4.678;2024-01-25T02:36:57;7.30;99.90
24035;DHT22;12242;50.952;4.678;2024-01-25T02:39:27;7.20;99.90
24035;DHT22;12242;50.952;4.678;2024-01-25T02:41:55;7.00;99.90
24035;DHT22;12242;50.952;4.678;2024-01-25T02:44:23;7.20;99.90
24035;DHT22;12242;50.952;4.678;2024-01-25T02:46:53;7.20;99.90
24035;DHT22;12242;50.952;4.678;2024-01-25T02:49:21;7.10;99.90
24035;DHT22;12242;50.952;4.678;2024-01-25T02:51:51;7.10;99.90
24035;DHT22;12242;50.952;4.678;2024-01-25T02:54:34;7.00;99.90
24035;DHT22;12242;50.952;4.678;2024-01-25T02:57:04;6.90;99.90
24035;DHT22;12242;50.952;4.678;2024-01-25T02:59:32;6.90;99.90
24035;DHT22;12242;50.952;4.678;2024-01-25T03:02:02;6.90;99.90
24035;DHT22;12242;50.952;4.678;2024-01-25T03:04:36;6.80;99.90
24035;DHT22;12242;50.952;4.678;2024-01-25T03:07:04;6.80;99.90
24035;DHT22;12242;50.952;4.678;2024-01-25T03:09:35;6.70;99.90
24035;DHT22;12242;50.952;4.678;2024-01-25T03:12:03;6.70;99.90
24035;DHT22;12242;50.952;4.678;2024-01-25T03:14:30;6.80;99.90
24035;DHT22;12242;50.952;4.678;2024-01-25T03:16:58;6.80;99.90
24035;DHT22;12242;50.952;4.678;2024-01-25T03:19:26;6.80;99.90
24035;DHT22;12242;50.952;4.678;2024-01-25T03:21:55;6.80;99.90
24035;DHT22;12242;50.952;4.678;2024-01-25T03:24:22;6.80;99.90
24035;DHT22;12242;50.952;4.678;2024-01-25T03:26:51;6.80;99.90
24035;DHT22;12242;50.952;4.678;2024-01-25T03:29:22;6.80;99.90
24035;DHT22;12242;50.952;4.678;2024-01-25T03:31:52;6.70;99.90
24035;DHT22;12242;50.952;4.678;2024-01-25T03:34:20;6.60;99.90
24035;DHT22;12242;50.952;4.678;2024-01-25T03:36:48;6.50;99.90
24035;DHT22;12242;50.952;4.678;2024-01-25T03:39:17;6.50;99.90
24035;DHT22;12242;50.952;4.678;2024-01-25T03:41:46;6.50;99.90
24035;DHT22;12242;50.952;4.678;2024-01-25T03:44:14;6.50;99.90
24035;DHT22;12242;50.952;4.678;2024-01-25T03:46:41;6.60;99.90
24035;DHT22;12242;50.952;4.678;2024-01-25T03:49:09;6.60;99.90
24035;DHT22;12242;50.952;4.678;2024-01-25T03:51:40;6.60;99.90
24035;DHT22;12242;50.952;4.678;2024-01-25T03:54:09;6.60;99.90
24035;DHT22;12242;50.952;4.678;2024-01-25T03:56:39;6.50;99.90
24035;DHT22;12242;50.952;4.678;2024-01-25T03:59:07;6.50;99.90
24035;DHT22;12242;50.952;4.678;2024-01-25T04:01:45;6.50;99.90
24035;DHT22;12242;50.952;4.678;2024-01-25T04:04:15;6.40;99.90
24035;DHT22;12242;50.952;4.678;2024-01-25T04:06:44;6.30;99.90
24035;DHT22;12242;50.952;4.678;2024-01-25T04:09:16;6.30;99.90
24035;DHT22;12242;50.952;4.678;2024-01-25T04:11:44;6.30;99.90
24035;DHT22;12242;50.952;4.678;2024-01-25T04:14:15;6.30;99.90
24035;DHT22;12242;50.952;4.678;2024-01-25T04:16:43;6.20;99.90
24035;DHT22;12242;50.952;4.678;2024-01-25T04:19:16;6.10;99.90
24035;DHT22;12242;50.952;4.678;2024-01-25T04:21:44;6.10;99.90
24035;DHT22;12242;50.952;4.678;2024-01-25T04:24:11;6.00;99.90
24035;DHT22;12242;50.952;4.678;2024-01-25T04:26:46;6.00;99.90
24035;DHT22;12242;50.952;4.678;2024-01-25T04:29:14;5.90;99.90
24035;DHT22;12242;50.952;4.678;2024-01-25T04:31:45;5.90;99.90
24035;DHT22;12242;50.952;4.678;2024-01-25T04:34:14;5.80;99.90
24035;DHT22;12242;50.952;4.678;2024-01-25T04:36:43;5.70;99.90
24035;DHT22;12242;50.952;4.678;2024-01-25T04:39:11;5.70;99.90
24035;DHT22;12242;50.952;4.678;2024-01-25T04:41:41;5.80;99.90
24035;DHT22;12242;50.952;4.678;2024-01-25T04:44:10;5.90;99.90
24035;DHT22;12242;50.952;4.678;2024-01-25T04:46:37;5.90;99.90
24035;DHT22;12242;50.952;4.678;2024-01-25T04:49:05;6.00;99.90
24035;DHT22;12242;50.952;4.678;2024-01-25T04:51:33;5.90;99.90
24035;DHT22;12242;50.952;4.678;2024-01-25T04:54:01;5.90;99.90
24035;DHT22;12242;50.952;4.678;2024-01-25T04:56:29;5.90;99.90
24035;DHT22;12242;50.952;4.678;2024-01-25T04:58:57;5.80;99.90
24035;DHT22;12242;50.952;4.678;2024-01-25T05:01:25;5.60;99.90
24035;DHT22;12242;50.952;4.678;2024-01-25T05:03:53;5.50;99.90
24035;DHT22;12242;50.952;4.678;2024-01-25T05:06:23;5.50;99.90
24035;DHT22;12242;50.952;4.678;2024-01-25T05:08:51;5.50;99.90
24035;DHT22;12242;50.952;4.678;2024-01-25T05:11:19;5.50;99.90
24035;DHT22;12242;50.952;4.678;2024-01-25T05:13:47;5.50;99.90
24035;DHT22;12242;50.952;4.678;2024-01-25T05:16:18;5.50;99.90
24035;DHT22;12242;50.952;4.678;2024-01-25T05:18:45;5.50;99.90
24035;DHT22;12242;50.952;4.678;2024-01-25T05:21:17;5.50;99.90
24035;DHT22;12242;50.952;4.678;2024-01-25T05:23:44;5.40;99.90
24035;DHT22;12242;50.952;4.678;2024-01-25T05:26:15;5.40;99.90
24035;DHT22;12242;50.952;4.678;2024-01-25T05:28:42;5.30;99.90
24035;DHT22;12242;50.952;4.678;2024-01-25T05:31:10;5.20;99.90
24035;DHT22;12242;50.952;4.678;2024-01-25T05:33:40;5.30;99.90
24035;DHT22;12242;50.952;4.678;2024-01-25T05:36:09;5.30;99.90
24035;DHT22;12242;50.952;4.678;2024-01-25T05:38:37;5.30;99.90
24035;DHT22;12242;50.952;4.678;2024-01-25T05:41:04;5.20;99.90
24035;DHT22;12242;50.952;4.678;2024-01-25T05:43:33;5.10;99.90
24035;DHT22;12242;50.952;4.678;2024-01-25T05:46:01;5.10;99.90
24035;DHT22;12242;50.952;4.678;2024-01-25T05:48:32;5.10;99.90
24035;DHT22;12242;50.952;4.678;2024-01-25T05:51:00;5.00;99.90
24035;DHT22;12242;50.952;4.678;2024-01-25T05:53:30;5.00;99.90
24035;DHT22;12242;50.952;4.678;2024-01-25T05:55:58;4.90;99.90
24035;DHT22;12242;50.952;4.678;2024-01-25T05:58:26;4.70;99.90
24035;DHT22;12242;50.952;4.678;2024-01-25T06:00:55;4.60;99.90
24035;DHT22;12242;50.952;4.678;2024-01-25T06:03:23;4.60;99.90
24035;DHT22;12242;50.952;4.678;2024-01-25T06:05:51;4.70;99.90
24035;DHT22;12242;50.952;4.678;2024-01-25T06:08:19;4.80;99.90
24035;DHT22;12242;50.952;4.678;2024-01-25T06:10:47;4.90;99.90
24035;DHT22;12242;50.952;4.678;2024-01-25T06:13:15;4.90;99.90
24035;DHT22;12242;50.952;4.678;2024-01-25T06:15:49;4.90;99.90
24035;DHT22;12242;50.952;4.678;2024-01-25T06:18:17;4.80;99.90
24035;DHT22;12242;50.952;4.678;2024-01-25T06:20:49;4.90;99.90
24035;DHT22;12242;50.952;4.678;2024-01-25T06:23:18;4.80;99.90
24035;DHT22;12242;50.952;4.678;2024-01-25T06:25:45;4.70;99.90
24035;DHT22;12242;50.952;4.678;2024-01-25T06:28:13;4.70;99.90
24035;DHT22;12242;50.952;4.678;2024-01-25T06:30:42;4.60;99.90
24035;DHT22;12242;50.952;4.678;2024-01-25T06:33:10;4.70;99.90
24035;DHT22;12242;50.952;4.678;2024-01-25T06:35:37;4.80;99.90
24035;DHT22;12242;50.952;4.678;2024-01-25T06:38:05;4.90;99.90
24035;DHT22;12242;50.952;4.678;2024-01-25T06:40:33;4.90;99.90
24035;DHT22;12242;50.952;4.678;2024-01-25T06:43:01;5.00;99.90
24035;DHT22;12242;50.952;4.678;2024-01-25T06:45:28;5.00;99.90
24035;DHT22;12242;50.952;4.678;2024-01-25T06:47:58;5.00;99.90
24035;DHT22;12242;50.952;4.678;2024-01-25T06:50:26;5.10;99.90
24035;DHT22;12242;50.952;4.678;2024-01-25T06:52:54;5.10;99.90
24035;DHT22;12242;50.952;4.678;2024-01-25T06:55:23;5.10;99.90
24035;DHT22;12242;50.952;4.678;2024-01-25T06:57:51;5.10;99.90
24035;DHT22;12242;50.952;4.678;2024-01-25T07:00:18;5.10;99.90
24035;DHT22;12242;50.952;4.678;2024-01-25T07:02:48;5.10;99.90
24035;DHT22;12242;50.952;4.678;2024-01-25T07:05:16;5.10;99.90
24035;DHT22;12242;50.952;4.678;2024-01-25T07:07:44;5.20;99.90
24035;DHT22;12242;50.952;4.678;2024-01-25T07:10:12;5.20;99.90
24035;DHT22;12242;50.952;4.678;2024-01-25T07:12:40;5.10;99.90
24035;DHT22;12242;50.952;4.678;2024-01-25T07:15:08;4.90;99.90
24035;DHT22;12242;50.952;4.678;2024-01-25T07:17:38;5.00;99.90
24035;DHT22;12242;50.952;4.678;2024-01-25T07:20:07;5.00;99.90
24035;DHT22;12242;50.952;4.678;2024-01-25T07:22:35;4.90;99.90
24035;DHT22;12242;50.952;4.678;2024-01-25T07:25:05;5.00;99.90
24035;DHT22;12242;50.952;4.678;2024-01-25T07:27:36;5.20;99.90
24035;DHT22;12242;50.952;4.678;2024-01-25T07:30:04;5.10;99.90
24035;DHT22;12242;50.952;4.678;2024-01-25T07:32:32;4.90;99.90
24035;DHT22;12242;50.952;4.678;2024-01-25T07:35:02;4.80;99.90
24035;DHT22;12242;50.952;4.678;2024-01-25T07:37:30;4.80;99.90
24035;DHT22;12242;50.952;4.678;2024-01-25T07:39:58;4.80;99.90
24035;DHT22;12242;50.952;4.678;2024-01-25T07:42:26;5.10;99.90
24035;DHT22;12242;50.952;4.678;2024-01-25T07:44:54;5.30;99.90
24035;DHT22;12242;50.952;4.678;2024-01-25T07:47:21;5.50;99.90
24035;DHT22;12242;50.952;4.678;2024-01-25T07:49:49;5.60;99.90
24035;DHT22;12242;50.952;4.678;2024-01-25T07:52:17;5.70;99.90
24035;DHT22;12242;50.952;4.678;2024-01-25T07:54:48;5.80;99.90
24035;DHT22;12242;50.952;4.678;2024-01-25T07:57:16;5.90;99.90
24035;DHT22;12242;50.952;4.678;2024-01-25T07:59:44;5.90;99.90
24035;DHT22;12242;50.952;4.678;2024-01-25T08:02:14;6.00;99.90
24035;DHT22;12242;50.952;4.678;2024-01-25T08:04:47;6.10;99.90
24035;DHT22;12242;50.952;4.678;2024-01-25T08:07:17;6.30;99.90
24035;DHT22;12242;50.952;4.678;2024-01-25T08:09:45;6.40;99.90
24035;DHT22;12242;50.952;4.678;2024-01-25T08:12:12;6.20;99.90
24035;DHT22;12242;50.952;4.678;2024-01-25T08:14:40;5.90;99.90
24035;DHT22;12242;50.952;4.678;2024-01-25T08:17:10;5.90;99.90
24035;DHT22;12242;50.952;4.678;2024-01-25T08:19:39;6.20;99.90
24035;DHT22;12242;50.952;4.678;2024-01-25T08:22:07;6.30;99.90
24035;DHT22;12242;50.952;4.678;2024-01-25T08:24:42;6.40;99.90
24035;DHT22;12242;50.952;4.678;2024-01-25T08:27:11;6.50;99.90
24035;DHT22;12242;50.952;4.678;2024-01-25T08:29:42;6.70;99.90
24035;DHT22;12242;50.952;4.678;2024-01-25T08:32:11;6.70;99.90
24035;DHT22;12242;50.952;4.678;2024-01-25T08:34:39;6.70;99.90
24035;DHT22;12242;50.952;4.678;2024-01-25T08:37:09;6.40;99.90
24035;DHT22;12242;50.952;4.678;2024-01-25T08:39:36;6.50;99.90
24035;DHT22;12242;50.952;4.678;2024-01-25T08:42:04;6.40;99.90
24035;DHT22;12242;50.952;4.678;2024-01-25T08:44:34;6.40;99.90
24035;DHT22;12242;50.952;4.678;2024-01-25T08:47:01;6.60;99.90
24035;DHT22;12242;50.952;4.678;2024-01-25T08:49:32;6.70;99.90
24035;DHT22;12242;50.952;4.678;2024-01-25T08:52:00;6.90;99.90
24035;DHT22;12242;50.952;4.678;2024-01-25T08:54:27;7.10;99.90
24035;DHT22;12242;50.952;4.678;2024-01-25T08:56:55;7.30;99.90
24035;DHT22;12242;50.952;4.678;2024-01-25T08:59:23;7.50;99.90
24035;DHT22;12242;50.952;4.678;2024-01-25T09:01:54;7.80;99.90
24035;DHT22;12242;50.952;4.678;2024-01-25T09:04:22;7.80;99.90
24035;DHT22;12242;50.952;4.678;2024-01-25T09:06:52;7.80;99.90
24035;DHT22;12242;50.952;4.678;2024-01-25T09:09:20;7.70;99.90
24035;DHT22;12242;50.952;4.678;2024-01-25T09:11:47;7.60;99.90
24035;DHT22;12242;50.952;4.678;2024-01-25T09:14:14;7.80;99.90
24035;DHT22;12242;50.952;4.678;2024-01-25T09:16:42;8.00;99.90
24035;DHT22;12242;50.952;4.678;2024-01-25T09:19:10;8.10;99.90
24035;DHT22;12242;50.952;4.678;2024-01-25T09:21:41;8.20;99.90
24035;DHT22;12242;50.952;4.678;2024-01-25T09:24:09;8.40;99.90
24035;DHT22;12242;50.952;4.678;2024-01-25T09:26:44;8.60;99.90
24035;DHT22;12242;50.952;4.678;2024-01-25T09:29:12;8.60;99.90
24035;DHT22;12242;50.952;4.678;2024-01-25T09:31:40;8.60;99.90
24035;DHT22;12242;50.952;4.678;2024-01-25T09:34:08;8.60;99.90
24035;DHT22;12242;50.952;4.678;2024-01-25T09:36:42;8.50;99.90
24035;DHT22;12242;50.952;4.678;2024-01-25T09:39:10;8.40;99.90
24035;DHT22;12242;50.952;4.678;2024-01-25T09:41:38;8.40;99.90
24035;DHT22;12242;50.952;4.678;2024-01-25T09:44:08;8.50;99.90
24035;DHT22;12242;50.952;4.678;2024-01-25T09:46:37;8.70;99.90
24035;DHT22;12242;50.952;4.678;2024-01-25T09:49:05;8.80;99.90
24035;DHT22;12242;50.952;4.678;2024-01-25T09:51:39;8.70;99.90
24035;DHT22;12242;50.952;4.678;2024-01-25T09:54:08;8.50;99.90
24035;DHT22;12242;50.952;4.678;2024-01-25T09:56:36;8.40;99.90
24035;DHT22;12242;50.952;4.678;2024-01-25T09:59:03;8.30;99.90
24035;DHT22;12242;50.952;4.678;2024-01-25T10:01:32;8.20;99.90
24035;DHT22;12242;50.952;4.678;2024-01-25T10:04:00;8.10;99.90
24035;DHT22;12242;50.952;4.678;2024-01-25T10:06:27;8.10;99.90
24035;DHT22;12242;50.952;4.678;2024-01-25T10:08:56;8.20;99.90
24035;DHT22;12242;50.952;4.678;2024-01-25T10:11:24;8.20;99.90
24035;DHT22;12242;50.952;4.678;2024-01-25T10:13:53;8.30;99.90
24035;DHT22;12242;50.952;4.678;2024-01-25T10:16:24;8.40;99.90
24035;DHT22;12242;50.952;4.678;2024-01-25T10:18:53;8.60;99.90
24035;DHT22;12242;50.952;4.678;2024-01-25T10:21:23;8.80;99.90
24035;DHT22;12242;50.952;4.678;2024-01-25T10:23:58;8.80;99.90
24035;DHT22;12242;50.952;4.678;2024-01-25T10:26:28;8.80;99.90
24035;DHT22;12242;50.952;4.678;2024-01-25T10:28:56;9.00;99.90
24035;DHT22;12242;50.952;4.678;2024-01-25T10:31:29;8.90;99.90
24035;DHT22;12242;50.952;4.678;2024-01-25T10:34:02;8.90;99.90
24035;DHT22;12242;50.952;4.678;2024-01-25T10:36:30;9.00;99.90
24035;DHT22;12242;50.952;4.678;2024-01-25T10:38:59;9.20;99.90
24035;DHT22;12242;50.952;4.678;2024-01-25T10:41:32;9.30;99.90
24035;DHT22;12242;50.952;4.678;2024-01-25T10:44:01;9.50;99.90
24035;DHT22;12242;50.952;4.678;2024-01-25T10:46:31;9.50;99.90
24035;DHT22;12242;50.952;4.678;2024-01-25T10:49:02;9.40;99.90
24035;DHT22;12242;50.952;4.678;2024-01-25T10:51:30;9.40;99.90
24035;DHT22;12242;50.952;4.678;2024-01-25T10:53:59;9.50;99.90
24035;DHT22;12242;50.952;4.678;2024-01-25T10:56:28;9.60;99.90
24035;DHT22;12242;50.952;4.678;2024-01-25T10:58:55;9.70;99.90
24035;DHT22;12242;50.952;4.678;2024-01-25T11:01:27;9.80;99.90
24035;DHT22;12242;50.952;4.678;2024-01-25T11:03:55;9.90;99.90
24035;DHT22;12242;50.952;4.678;2024-01-25T11:06:24;10.00;99.90
24035;DHT22;12242;50.952;4.678;2024-01-25T11:09:05;10.10;99.90
24035;DHT22;12242;50.952;4.678;2024-01-25T11:11:36;9.90;99.90
24035;DHT22;12242;50.952;4.678;2024-01-25T11:14:11;9.70;99.90
24035;DHT22;12242;50.952;4.678;2024-01-25T11:16:43;9.70;99.90
24035;DHT22;12242;50.952;4.678;2024-01-25T11:19:22;9.80;99.90
24035;DHT22;12242;50.952;4.678;2024-01-25T11:21:52;10.00;99.90
24035;DHT22;12242;50.952;4.678;2024-01-25T11:26:50;10.30;99.90
24035;DHT22;12242;50.952;4.678;2024-01-25T11:29:21;10.20;99.90
24035;DHT22;12242;50.952;4.678;2024-01-25T11:31:52;10.20;99.90
24035;DHT22;12242;50.952;4.678;2024-01-25T11:34:22;10.40;99.90
24035;DHT22;12242;50.952;4.678;2024-01-25T11:36:50;10.30;99.90
24035;DHT22;12242;50.952;4.678;2024-01-25T11:39:18;10.30;99.90
24035;DHT22;12242;50.952;4.678;2024-01-25T11:41:50;10.40;99.90
24035;DHT22;12242;50.952;4.678;2024-01-25T11:44:18;10.60;99.90
24035;DHT22;12242;50.952;4.678;2024-01-25T11:46:46;10.60;99.90
24035;DHT22;12242;50.952;4.678;2024-01-25T11:49:14;10.60;99.90
24035;DHT22;12242;50.952;4.678;2024-01-25T11:51:42;10.60;99.90
24035;DHT22;12242;50.952;4.678;2024-01-25T11:54:10;10.70;99.90
24035;DHT22;12242;50.952;4.678;2024-01-25T11:56:39;10.70;99.90
24035;DHT22;12242;50.952;4.678;2024-01-25T11:59:10;10.70;99.90
24035;DHT22;12242;50.952;4.678;2024-01-25T12:01:39;10.80;99.90
24035;DHT22;12242;50.952;4.678;2024-01-25T12:04:14;11.00;99.90
24035;DHT22;12242;50.952;4.678;2024-01-25T12:06:42;11.20;99.90
24035;DHT22;12242;50.952;4.678;2024-01-25T12:09:11;11.30;99.90
24035;DHT22;12242;50.952;4.678;2024-01-25T12:11:41;11.50;99.90
24035;DHT22;12242;50.952;4.678;2024-01-25T12:14:11;11.70;99.90
24035;DHT22;12242;50.952;4.678;2024-01-25T12:16:40;11.50;99.90
24035;DHT22;12242;50.952;4.678;2024-01-25T12:19:07;11.40;99.90
24035;DHT22;12242;50.952;4.678;2024-01-25T12:21:36;11.50;99.90
24035;DHT22;12242;50.952;4.678;2024-01-25T12:24:08;11.40;99.90
24035;DHT22;12242;50.952;4.678;2024-01-25T12:26:36;11.30;99.90
24035;DHT22;12242;50.952;4.678;2024-01-25T12:29:04;11.10;99.90
24035;DHT22;12242;50.952;4.678;2024-01-25T12:31:36;11.00;99.90
24035;DHT22;12242;50.952;4.678;2024-01-25T12:34:13;11.10;99.90
24035;DHT22;12242;50.952;4.678;2024-01-25T12:36:42;11.00;99.90
24035;DHT22;12242;50.952;4.678;2024-01-25T12:39:11;10.90;99.90
24035;DHT22;12242;50.952;4.678;2024-01-25T12:41:42;11.00;99.90
24035;DHT22;12242;50.952;4.678;2024-01-25T12:44:11;10.90;99.90
24035;DHT22;12242;50.952;4.678;2024-01-25T12:46:39;11.00;99.90
24035;DHT22;12242;50.952;4.678;2024-01-25T12:49:06;11.00;99.90
24035;DHT22;12242;50.952;4.678;2024-01-25T12:51:34;10.90;99.90
24035;DHT22;12242;50.952;4.678;2024-01-25T12:54:08;10.90;99.90
24035;DHT22;12242;50.952;4.678;2024-01-25T12:56:37;10.70;99.90
24035;DHT22;12242;50.952;4.678;2024-01-25T12:59:04;10.70;99.90
24035;DHT22;12242;50.952;4.678;2024-01-25T13:01:33;10.80;99.90
24035;DHT22;12242;50.952;4.678;2024-01-25T13:04:01;10.90;99.90
24035;DHT22;12242;50.952;4.678;2024-01-25T13:06:30;10.90;99.90
24035;DHT22;12242;50.952;4.678;2024-01-25T13:08:58;10.90;99.90
24035;DHT22;12242;50.952;4.678;2024-01-25T13:11:28;10.90;99.90
24035;DHT22;12242;50.952;4.678;2024-01-25T13:13:56;11.00;99.90
24035;DHT22;12242;50.952;4.678;2024-01-25T13:16:23;11.00;99.90
24035;DHT22;12242;50.952;4.678;2024-01-25T13:18:51;11.10;99.90
24035;DHT22;12242;50.952;4.678;2024-01-25T13:21:18;11.20;99.90
24035;DHT22;12242;50.952;4.678;2024-01-25T13:23:46;11.10;99.90
24035;DHT22;12242;50.952;4.678;2024-01-25T13:26:14;11.00;99.90
24035;DHT22;12242;50.952;4.678;2024-01-25T13:28:42;11.00;99.90
24035;DHT22;12242;50.952;4.678;2024-01-25T13:31:09;11.20;99.90
24035;DHT22;12242;50.952;4.678;2024-01-25T13:33:37;11.10;99.90
24035;DHT22;12242;50.952;4.678;2024-01-25T13:36:06;11.10;99.90
24035;DHT22;12242;50.952;4.678;2024-01-25T13:38:35;11.10;99.90
24035;DHT22;12242;50.952;4.678;2024-01-25T13:41:03;11.10;99.90
24035;DHT22;12242;50.952;4.678;2024-01-25T13:43:31;11.20;99.90
24035;DHT22;12242;50.952;4.678;2024-01-25T13:45:59;11.40;99.90
24035;DHT22;12242;50.952;4.678;2024-01-25T13:48:26;11.50;99.90
24035;DHT22;12242;50.952;4.678;2024-01-25T13:50:54;11.50;99.90
24035;DHT22;12242;50.952;4.678;2024-01-25T13:53:22;11.40;99.90
24035;DHT22;12242;50.952;4.678;2024-01-25T13:55:50;11.50;99.90
24035;DHT22;12242;50.952;4.678;2024-01-25T13:58:20;11.60;99.90
24035;DHT22;12242;50.952;4.678;2024-01-25T14:00:48;11.50;99.90
24035;DHT22;12242;50.952;4.678;2024-01-25T14:03:15;11.50;99.90
24035;DHT22;12242;50.952;4.678;2024-01-25T14:05:44;11.70;99.90
24035;DHT22;12242;50.952;4.678;2024-01-25T14:08:12;11.80;99.90
24035;DHT22;12242;50.952;4.678;2024-01-25T14:10:39;12.00;99.90
24035;DHT22;12242;50.952;4.678;2024-01-25T14:13:08;11.80;99.90
24035;DHT22;12242;50.952;4.678;2024-01-25T14:15:35;11.70;99.90
24035;DHT22;12242;50.952;4.678;2024-01-25T14:18:03;11.70;99.90
24035;DHT22;12242;50.952;4.678;2024-01-25T14:20:31;11.70;99.90
24035;DHT22;12242;50.952;4.678;2024-01-25T14:22:59;11.70;99.90
24035;DHT22;12242;50.952;4.678;2024-01-25T14:25:28;11.80;99.90
24035;DHT22;12242;50.952;4.678;2024-01-25T14:27:58;11.70;99.90
24035;DHT22;12242;50.952;4.678;2024-01-25T14:30:26;11.70;99.90
24035;DHT22;12242;50.952;4.678;2024-01-25T14:32:55;11.80;99.90
24035;DHT22;12242;50.952;4.678;2024-01-25T14:35:26;11.80;99.90
24035;DHT22;12242;50.952;4.678;2024-01-25T14:38:00;11.70;99.90
24035;DHT22;12242;50.952;4.678;2024-01-25T14:40:28;11.90;99.90
24035;DHT22;12242;50.952;4.678;2024-01-25T14:43:15;11.80;99.90
24035;DHT22;12242;50.952;4.678;2024-01-25T14:45:43;11.80;99.90
24035;DHT22;12242;50.952;4.678;2024-01-25T14:48:11;11.70;99.90
24035;DHT22;12242;50.952;4.678;2024-01-25T14:50:39;11.70;99.90
24035;DHT22;12242;50.952;4.678;2024-01-25T14:53:08;11.70;99.90
24035;DHT22;12242;50.952;4.678;2024-01-25T14:55:37;11.80;99.90
24035;DHT22;12242;50.952;4.678;2024-01-25T14:58:04;11.90;99.90
24035;DHT22;12242;50.952;4.678;2024-01-25T15:00:32;11.90;99.90
24035;DHT22;12242;50.952;4.678;2024-01-25T15:03:00;11.90;99.90
24035;DHT22;12242;50.952;4.678;2024-01-25T15:05:28;11.80;99.90
24035;DHT22;12242;50.952;4.678;2024-01-25T15:08:02;11.80;99.90
24035;DHT22;12242;50.952;4.678;2024-01-25T15:10:30;11.80;99.90
24035;DHT22;12242;50.952;4.678;2024-01-25T15:12:58;11.90;99.90
24035;DHT22;12242;50.952;4.678;2024-01-25T15:15:27;12.00;99.90
24035;DHT22;12242;50.952;4.678;2024-01-25T15:17:58;12.10;99.90
24035;DHT22;12242;50.952;4.678;2024-01-25T15:20:26;12.00;99.90
24035;DHT22;12242;50.952;4.678;2024-01-25T15:22:54;11.90;99.90
24035;DHT22;12242;50.952;4.678;2024-01-25T15:25:26;11.90;99.90
24035;DHT22;12242;50.952;4.678;2024-01-25T15:27:54;11.80;99.90
24035;DHT22;12242;50.952;4.678;2024-01-25T15:30:21;11.70;99.90
24035;DHT22;12242;50.952;4.678;2024-01-25T15:32:49;11.70;99.90
24035;DHT22;12242;50.952;4.678;2024-01-25T15:35:17;11.70;99.90
24035;DHT22;12242;50.952;4.678;2024-01-25T15:37:47;11.60;99.90
24035;DHT22;12242;50.952;4.678;2024-01-25T15:40:15;11.60;99.90
24035;DHT22;12242;50.952;4.678;2024-01-25T15:42:46;11.60;99.90
24035;DHT22;12242;50.952;4.678;2024-01-25T15:45:23;11.50;99.90
24035;DHT22;12242;50.952;4.678;2024-01-25T15:47:51;11.50;99.90
24035;DHT22;12242;50.952;4.678;2024-01-25T15:50:19;11.50;99.90
24035;DHT22;12242;50.952;4.678;2024-01-25T15:52:47;11.50;99.90
24035;DHT22;12242;50.952;4.678;2024-01-25T15:55:15;11.50;99.90